Time;durP1;ratioP1;P1;durP2;ratioP2;P2;SDS_P1;SDS_P2;PMS_P1;PMS_P2;Temp;Humidity;BMP_temperature;BMP_pressure;BME280_temperature;BME280_humidity;BME280_pressure;Samples;Min_cycle;Max_cycle;Signal;HPM_P1;HPM_P2
2021/12/20 00:02:08;;;;;;;8.82;3.28;;;3.30;95.10;;;;;;5074063;28;20016;-77
2021/12/20 00:04:34;;;;;;;7.43;2.92;;;3.20;95.20;;;;;;5072635;28;20195;-76
2021/12/20 00:07:02;;;;;;;11.35;3.85;;;3.20;95.30;;;;;;5050277;28;20386;-76
2021/12/20 00:09:30;;;;;;;10.15;3.10;;;3.10;95.30;;;;;;5052549;28;20532;-77
2021/12/20 00:11:57;;;;;;;13.32;3.35;;;3.10;95.50;;;;;;5053711;28;20382;-76
2021/12/20 00:14:24;;;;;;;11.73;3.00;;;3.00;95.60;;;;;;5053706;28;20020;-77
2021/12/20 00:16:58;;;;;;;9.18;4.18;;;3.00;95.60;;;;;;5062480;28;20078;-77
2021/12/20 00:19:25;;;;;;;14.05;3.08;;;2.90;95.70;;;;;;5072107;28;20024;-76
2021/12/20 00:21:52;;;;;;;10.25;3.20;;;2.90;95.80;;;;;;5073816;28;20020;-76
2021/12/20 00:24:20;;;;;;;7.97;2.90;;;2.80;95.90;;;;;;5055828;28;20158;-76
2021/12/20 00:26:45;;;;;;;8.30;3.90;;;2.80;96.20;;;;;;5073396;28;20024;-76
2021/12/20 00:29:13;;;;;;;10.25;3.80;;;2.80;96.30;;;;;;5072287;28;20441;-76
2021/12/20 00:31:40;;;;;;;8.05;3.28;;;2.80;96.50;;;;;;5073623;28;20108;-76
2021/12/20 00:34:07;;;;;;;15.80;5.45;;;2.70;96.50;;;;;;5072928;28;20028;-76
2021/12/20 00:36:56;;;;;;;10.98;3.30;;;2.70;96.50;;;;;;5073560;28;20056;-77
2021/12/20 00:42:11;;;;;;;8.93;3.17;;;2.70;97.00;;;;;;5073635;28;20077;-77
2021/12/20 00:44:37;;;;;;;9.70;3.42;;;2.60;96.60;;;;;;5073422;28;20023;-77
2021/12/20 00:47:04;;;;;;;7.97;2.92;;;2.60;96.70;;;;;;5073439;28;20480;-77
2021/12/20 00:49:32;;;;;;;8.23;3.20;;;2.60;96.70;;;;;;5073613;28;20066;-77
2021/12/20 00:52:00;;;;;;;8.10;3.30;;;2.60;96.90;;;;;;5073736;28;20095;-77
2021/12/20 00:54:27;;;;;;;11.32;3.28;;;2.50;97.00;;;;;;5072147;28;20557;-77
2021/12/20 00:56:55;;;;;;;11.48;3.72;;;2.60;97.30;;;;;;5073118;28;20175;-76
2021/12/20 00:59:23;;;;;;;4.75;2.60;;;2.60;97.40;;;;;;5073188;28;20028;-76
2021/12/20 01:01:49;;;;;;;9.23;3.22;;;2.60;97.40;;;;;;5072090;28;20104;-76
2021/12/20 01:04:17;;;;;;;8.68;4.40;;;2.60;97.40;;;;;;5071974;28;20531;-76
2021/12/20 01:06:44;;;;;;;9.98;3.13;;;2.60;97.40;;;;;;5071792;28;20017;-76
2021/12/20 01:09:18;;;;;;;11.35;3.38;;;2.60;97.40;;;;;;5069835;28;20029;-76
2021/12/20 01:11:51;;;;;;;12.80;3.22;;;2.70;97.50;;;;;;5072080;28;20075;-77
2021/12/20 01:14:23;;;;;;;8.75;3.50;;;2.70;97.60;;;;;;5073262;28;20100;-76
2021/12/20 01:17:04;;;;;;;15.55;4.18;;;2.70;97.60;;;;;;5075867;28;20028;-77
2021/12/20 01:19:34;;;;;;;10.05;4.05;;;2.70;97.60;;;;;;5077131;28;20469;-77
2021/12/20 01:22:15;;;;;;;9.20;3.03;;;2.80;97.70;;;;;;5076034;28;20103;-76
2021/12/20 01:24:41;;;;;;;7.80;3.47;;;2.80;97.70;;;;;;5077088;28;20465;-76
2021/12/20 01:27:08;;;;;;;12.10;3.95;;;2.80;97.60;;;;;;5076808;28;20469;-77
2021/12/20 01:29:35;;;;;;;9.73;3.65;;;2.80;97.50;;;;;;5076813;28;20020;-77
2021/12/20 01:32:02;;;;;;;9.90;3.72;;;2.90;97.40;;;;;;5077034;28;20025;-77
2021/12/20 01:34:27;;;;;;;7.93;3.88;;;2.90;97.60;;;;;;5077025;28;20085;-77
2021/12/20 01:36:55;;;;;;;7.30;3.33;;;2.90;97.30;;;;;;5076913;28;20029;-76
2021/12/20 01:39:42;;;;;;;8.85;4.40;;;2.90;97.40;;;;;;5076940;28;20075;-77
2021/12/20 01:42:15;;;;;;;10.95;4.10;;;3.00;97.50;;;;;;5076517;28;20021;-76
2021/12/20 01:44:41;;;;;;;11.38;4.47;;;3.00;97.50;;;;;;5076517;28;20023;-76
2021/12/20 01:47:09;;;;;;;8.88;3.13;;;3.10;97.40;;;;;;5064884;28;20378;-76
2021/12/20 01:49:50;;;;;;;8.43;3.50;;;3.10;97.30;;;;;;5056531;28;20017;-76
2021/12/20 01:52:20;;;;;;;7.57;3.40;;;3.10;97.10;;;;;;5055138;28;20174;-76
2021/12/20 01:54:47;;;;;;;10.45;3.42;;;3.20;97.30;;;;;;5056649;28;20378;-76
2021/12/20 01:57:14;;;;;;;12.15;3.78;;;3.30;97.10;;;;;;5054732;28;20541;-76
2021/12/20 01:59:44;;;;;;;9.05;3.60;;;3.30;96.90;;;;;;5056205;28;20025;-76
2021/12/20 02:02:11;;;;;;;7.43;3.90;;;3.30;96.80;;;;;;5055098;28;20160;-76
2021/12/20 02:04:47;;;;;;;9.65;3.13;;;3.40;96.70;;;;;;5054972;28;20013;-75
2021/12/20 02:07:31;;;;;;;4.68;2.80;;;3.40;96.40;;;;;;5056359;28;20066;-75
2021/12/20 02:10:00;;;;;;;11.32;3.60;;;3.40;96.20;;;;;;5054985;28;20505;-77
2021/12/20 02:12:27;;;;;;;7.53;3.65;;;3.50;95.90;;;;;;5056162;28;20036;-76
2021/12/20 02:14:58;;;;;;;7.30;3.22;;;3.50;95.70;;;;;;5055956;28;20025;-76
2021/12/20 02:17:25;;;;;;;9.68;3.33;;;3.50;95.70;;;;;;5055951;28;20027;-76
2021/12/20 02:19:52;;;;;;;9.68;3.42;;;3.60;95.60;;;;;;5064663;28;20477;-76
2021/12/20 02:22:20;;;;;;;6.05;2.53;;;3.60;95.30;;;;;;5075993;28;20024;-76
2021/12/20 02:24:48;;;;;;;10.75;2.97;;;3.60;95.20;;;;;;5075844;28;20017;-77
2021/12/20 02:27:16;;;;;;;10.15;3.15;;;3.60;95.00;;;;;;5075845;28;20051;-76
2021/12/20 02:29:59;;;;;;;6.65;2.60;;;3.70;94.80;;;;;;5075200;28;20035;-76
2021/12/20 02:37:56;;;;;;;6.68;3.35;;;3.80;94.00;;;;;;5055382;28;20505;-75
2021/12/20 02:40:30;;;;;;;8.35;3.38;;;3.80;94.00;;;;;;5055774;28;20017;-75
2021/12/20 02:43:00;;;;;;;7.82;2.85;;;3.80;93.80;;;;;;5054217;28;20029;-77
2021/12/20 02:45:31;;;;;;;5.28;2.70;;;3.80;93.60;;;;;;5054463;28;20100;-76
2021/12/20 02:48:00;;;;;;;5.70;3.40;;;3.90;93.50;;;;;;5055394;28;20025;-75
2021/12/20 02:50:34;;;;;;;5.50;2.63;;;3.90;93.40;;;;;;5055504;28;20021;-77
2021/12/20 02:53:05;;;;;;;7.95;2.97;;;3.90;93.30;;;;;;5055657;28;20482;-76
2021/12/20 02:55:33;;;;;;;4.97;2.90;;;3.90;93.40;;;;;;5054085;28;20079;-76
2021/12/20 02:58:00;;;;;;;3.72;2.42;;;3.90;93.10;;;;;;5055222;28;20080;-77
2021/12/20 03:00:27;;;;;;;7.13;2.40;;;3.90;92.70;;;;;;5054110;28;20154;-76
2021/12/20 03:02:58;;;;;;;5.50;2.97;;;3.90;92.50;;;;;;5055086;28;20450;-77
2021/12/20 03:05:24;;;;;;;8.32;2.78;;;3.90;92.40;;;;;;5055171;28;20017;-77
2021/12/20 03:07:54;;;;;;;6.05;2.17;;;4.00;92.20;;;;;;5053866;28;20048;-77
2021/12/20 03:10:21;;;;;;;3.92;2.35;;;4.00;92.10;;;;;;5054167;28;20450;-77
2021/12/20 03:12:58;;;;;;;6.35;2.80;;;4.00;91.90;;;;;;5055198;28;20100;-77
2021/12/20 03:15:34;;;;;;;6.50;2.10;;;4.00;91.90;;;;;;5053679;28;20025;-77
2021/12/20 03:18:01;;;;;;;4.47;2.50;;;4.00;91.90;;;;;;5053736;28;20029;-77
2021/12/20 03:20:29;;;;;;;3.13;2.13;;;3.90;91.60;;;;;;5054841;28;20029;-77
2021/12/20 03:22:56;;;;;;;7.32;2.55;;;3.90;91.60;;;;;;5053477;28;20078;-76
2021/12/20 03:25:23;;;;;;;6.43;2.05;;;4.00;91.80;;;;;;5054734;28;20021;-77
2021/12/20 03:27:54;;;;;;;3.17;2.13;;;4.00;91.60;;;;;;5054583;28;20021;-77
2021/12/20 03:30:21;;;;;;;6.07;2.47;;;4.00;91.70;;;;;;5054534;28;20013;-77
2021/12/20 03:32:49;;;;;;;4.15;2.00;;;4.00;91.30;;;;;;5054768;28;20052;-76
2021/12/20 03:35:16;;;;;;;4.07;2.00;;;4.00;91.20;;;;;;5054699;28;20017;-76
2021/12/20 03:37:42;;;;;;;3.42;2.30;;;4.00;91.20;;;;;;5054023;28;20024;-77
2021/12/20 03:40:10;;;;;;;8.27;2.65;;;4.00;91.20;;;;;;5054496;28;20028;-76
2021/12/20 03:42:42;;;;;;;6.07;2.60;;;4.00;91.10;;;;;;5054412;28;20466;-76
2021/12/20 03:45:13;;;;;;;4.13;2.40;;;4.00;91.00;;;;;;5053986;28;20025;-75
2021/12/20 03:47:43;;;;;;;4.85;2.08;;;4.00;91.40;;;;;;5062393;28;20032;-76
2021/12/20 03:50:11;;;;;;;4.03;2.40;;;3.90;90.90;;;;;;5074325;28;20032;-74
2021/12/20 03:52:38;;;;;;;4.85;3.13;;;3.90;90.80;;;;;;5072952;28;20029;-76
2021/12/20 03:55:14;;;;;;;4.93;2.33;;;3.90;90.80;;;;;;5074293;28;20021;-76
2021/12/20 03:57:41;;;;;;;6.20;3.38;;;3.90;90.90;;;;;;5072715;28;20126;-77
2021/12/20 04:00:12;;;;;;;2.92;2.08;;;3.90;90.80;;;;;;5074087;28;20024;-77
2021/12/20 04:02:42;;;;;;;3.28;2.58;;;3.90;90.90;;;;;;5056379;28;20017;-77
2021/12/20 04:05:09;;;;;;;3.33;2.20;;;3.80;90.90;;;;;;5073905;28;20050;-76
2021/12/20 04:07:40;;;;;;;4.72;2.30;;;3.80;90.70;;;;;;5072608;28;20029;-76
2021/12/20 04:10:08;;;;;;;5.72;2.67;;;3.80;90.80;;;;;;5072887;28;20025;-75
2021/12/20 04:12:37;;;;;;;4.55;2.28;;;3.80;90.70;;;;;;5072613;28;20020;-76
2021/12/20 04:15:05;;;;;;;3.22;2.00;;;3.80;90.80;;;;;;5073957;28;20020;-77
2021/12/20 04:17:32;;;;;;;6.00;1.95;;;3.80;90.90;;;;;;5073834;28;20025;-77
2021/12/20 04:19:59;;;;;;;2.58;1.95;;;3.80;90.90;;;;;;5072324;28;20021;-76
2021/12/20 04:22:27;;;;;;;4.25;2.67;;;3.80;90.80;;;;;;5072715;28;20380;-76
2021/12/20 04:24:54;;;;;;;2.33;1.83;;;3.80;90.90;;;;;;5066398;28;20466;-77
2021/12/20 04:27:20;;;;;;;3.17;1.50;;;3.80;90.90;;;;;;5053799;28;20062;-76
2021/12/20 04:29:49;;;;;;;2.47;1.33;;;3.80;90.80;;;;;;5052282;28;20017;-76
2021/12/20 04:32:19;;;;;;;3.03;1.33;;;3.80;90.80;;;;;;5053648;28;20104;-76
2021/12/20 04:34:59;;;;;;;4.05;1.35;;;3.80;90.70;;;;;;5052241;28;20036;-76
2021/12/20 04:37:26;;;;;;;4.30;1.38;;;3.80;90.50;;;;;;5053788;28;20025;-76
2021/12/20 04:39:54;;;;;;;5.97;1.55;;;3.70;90.70;;;;;;5052104;28;20466;-75
2021/12/20 04:42:21;;;;;;;5.60;1.52;;;3.70;90.70;;;;;;5053491;28;20122;-76
2021/12/20 04:44:49;;;;;;;6.95;1.55;;;3.70;90.80;;;;;;5052284;28;20028;-77
2021/12/20 04:47:18;;;;;;;3.70;1.52;;;3.60;90.70;;;;;;5052111;28;20060;-76
2021/12/20 04:49:46;;;;;;;3.03;1.08;;;3.60;90.70;;;;;;5054375;28;20025;-77
2021/12/20 04:52:13;;;;;;;1.83;1.38;;;3.60;90.70;;;;;;5057818;28;20032;-77
2021/12/20 04:54:38;;;;;;;3.17;1.20;;;3.60;90.80;;;;;;5039558;28;20047;-77
2021/12/20 04:57:07;;;;;;;3.47;1.30;;;3.60;90.80;;;;;;5055873;28;20545;-76
2021/12/20 04:59:35;;;;;;;3.97;1.67;;;3.60;91.00;;;;;;5057185;28;20028;-76
2021/12/20 05:02:03;;;;;;;3.55;1.30;;;3.60;91.00;;;;;;5057824;28;20029;-76
2021/12/20 05:04:33;;;;;;;3.08;1.70;;;3.60;90.90;;;;;;5057543;28;20027;-76
2021/12/20 05:07:02;;;;;;;5.13;1.33;;;3.60;91.00;;;;;;5056237;28;20090;-76
2021/12/20 05:09:36;;;;;;;4.07;2.15;;;3.60;91.00;;;;;;5057242;28;20021;-76
2021/12/20 05:12:11;;;;;;;2.60;1.58;;;3.60;91.00;;;;;;5057365;28;20025;-76
2021/12/20 05:14:50;;;;;;;4.90;1.80;;;3.60;91.20;;;;;;5056181;28;20096;-76
2021/12/20 05:17:17;;;;;;;3.35;1.25;;;3.70;91.30;;;;;;5057422;28;20021;-77
2021/12/20 05:19:44;;;;;;;5.97;1.40;;;3.60;91.10;;;;;;5056995;28;20415;-77
2021/12/20 05:22:11;;;;;;;7.63;2.17;;;3.60;91.30;;;;;;5055762;28;20025;-77
2021/12/20 05:24:39;;;;;;;3.33;1.05;;;3.60;91.40;;;;;;5055642;28;20013;-77
2021/12/20 05:27:09;;;;;;;2.47;1.40;;;3.60;91.40;;;;;;5039038;28;20021;-76
2021/12/20 05:29:35;;;;;;;5.75;2.67;;;3.60;91.50;;;;;;5055667;28;20033;-76
2021/12/20 05:32:04;;;;;;;3.38;1.73;;;3.60;91.40;;;;;;5055488;28;20120;-76
2021/12/20 05:34:35;;;;;;;3.00;1.20;;;3.60;91.30;;;;;;5055260;28;20162;-76
2021/12/20 05:37:03;;;;;;;6.00;2.30;;;3.60;91.20;;;;;;5055290;28;20044;-76
2021/12/20 05:39:30;;;;;;;3.13;1.92;;;3.50;91.40;;;;;;5056286;28;20291;-76
2021/12/20 05:41:58;;;;;;;4.65;1.40;;;3.50;91.40;;;;;;5056399;28;20049;-76
2021/12/20 05:44:26;;;;;;;3.65;1.10;;;3.50;91.30;;;;;;5056603;28;20070;-76
2021/12/20 05:46:52;;;;;;;8.18;2.47;;;3.50;91.30;;;;;;5057076;28;20462;-77
2021/12/20 05:49:18;;;;;;;8.88;2.13;;;3.50;91.30;;;;;;5057634;28;20025;-75
2021/12/20 05:51:46;;;;;;;7.65;2.05;;;3.50;91.50;;;;;;5056017;28;20033;-77
2021/12/20 05:54:14;;;;;;;4.72;1.70;;;3.50;91.50;;;;;;5058087;28;20147;-77
2021/12/20 05:56:41;;;;;;;7.65;2.67;;;3.50;91.40;;;;;;5058134;28;20045;-76
2021/12/20 05:59:08;;;;;;;5.50;2.15;;;3.50;91.30;;;;;;5056496;28;20056;-76
2021/12/20 06:01:36;;;;;;;3.75;1.33;;;3.50;91.00;;;;;;5055727;28;20017;-76
2021/12/20 06:04:01;;;;;;;15.32;2.55;;;3.60;91.00;;;;;;5054697;28;20017;-76
2021/12/20 06:06:31;;;;;;;10.50;1.90;;;3.60;91.10;;;;;;5056485;28;20025;-76
2021/12/20 06:08:58;;;;;;;3.42;1.40;;;3.60;91.10;;;;;;5056317;28;20040;-76
2021/12/20 06:11:25;;;;;;;4.90;1.90;;;3.60;91.10;;;;;;5056104;28;20052;-76
2021/12/20 06:14:01;;;;;;;6.57;1.95;;;3.60;91.00;;;;;;5037876;28;20033;-75
2021/12/20 06:16:29;;;;;;;5.20;2.05;;;3.60;91.00;;;;;;5054639;28;20417;-74
2021/12/20 06:18:56;;;;;;;5.90;2.60;;;3.60;90.70;;;;;;5054055;28;20025;-73
2021/12/20 06:21:23;;;;;;;3.63;1.85;;;3.60;90.70;;;;;;5055382;28;20021;-74
2021/12/20 06:23:50;;;;;;;4.75;1.83;;;3.60;90.80;;;;;;5053940;28;20104;-73
2021/12/20 06:26:30;;;;;;;5.43;2.00;;;3.60;90.80;;;;;;5055403;28;20113;-74
2021/12/20 06:28:57;;;;;;;5.07;2.58;;;3.60;90.80;;;;;;5055301;28;20462;-80
2021/12/20 06:31:24;;;;;;;12.32;4.55;;;3.60;90.80;;;;;;5053868;28;20411;-74
2021/12/20 06:33:51;;;;;;;11.13;2.53;;;3.60;90.80;;;;;;5053743;28;20035;-74
2021/12/20 06:36:21;;;;;;;5.32;1.65;;;3.50;90.80;;;;;;5055180;28;20167;-75
2021/12/20 06:38:56;;;;;;;3.47;1.85;;;3.50;90.80;;;;;;5054206;28;20141;-76
2021/12/20 06:41:23;;;;;;;4.45;1.80;;;3.60;91.20;;;;;;5056307;28;20017;-74
2021/12/20 06:43:51;;;;;;;8.57;2.05;;;3.60;91.00;;;;;;5054732;28;20016;-73
2021/12/20 06:46:20;;;;;;;9.38;2.63;;;3.60;91.00;;;;;;5084266;28;20020;-83
2021/12/20 06:48:46;;;;;;;7.05;2.33;;;3.70;91.00;;;;;;5093904;28;20404;-76
2021/12/20 06:51:13;;;;;;;10.57;2.67;;;3.70;90.80;;;;;;5096039;28;20672;-81
2021/12/20 06:53:55;;;;;;;10.30;1.92;;;3.80;90.60;;;;;;5060997;28;20029;-82
2021/12/20 06:56:21;;;;;;;16.10;2.50;;;3.80;90.30;;;;;;5073570;28;20032;-74
2021/12/20 06:58:47;;;;;;;5.00;1.70;;;3.80;90.30;;;;;;5073791;28;20063;-76
2021/12/20 07:01:13;;;;;;;9.50;2.28;;;3.80;90.10;;;;;;5075615;28;20028;-76
2021/12/20 07:03:40;;;;;;;11.40;3.13;;;3.70;90.10;;;;;;5073102;28;20031;-79
2021/12/20 07:06:07;;;;;;;6.63;2.15;;;3.80;90.30;;;;;;5088196;22;20140;-78
2021/12/20 07:08:36;;;;;;;8.45;3.25;;;3.70;90.40;;;;;;4980625;28;20039;-81
2021/12/20 07:11:05;;;;;;;5.15;1.88;;;3.70;90.30;;;;;;4999402;28;20439;-78
2021/12/20 07:13:34;;;;;;;5.25;2.58;;;3.70;90.30;;;;;;4994072;28;20033;-78
2021/12/20 07:16:19;;;;;;;6.28;2.70;;;3.70;90.30;;;;;;4992937;28;20022;-79
2021/12/20 07:18:57;;;;;;;6.50;2.45;;;3.70;90.50;;;;;;4976934;28;20036;-77
2021/12/20 07:21:23;;;;;;;6.45;2.80;;;3.70;90.60;;;;;;4995051;28;20019;-78
2021/12/20 07:24:02;;;;;;;7.35;2.78;;;3.60;90.60;;;;;;5000769;28;20026;-78
2021/12/20 07:26:30;;;;;;;11.10;2.42;;;3.70;90.50;;;;;;5012490;28;20384;-78
2021/12/20 07:28:56;;;;;;;6.57;2.33;;;3.70;90.70;;;;;;5012431;28;20052;-79
2021/12/20 07:31:23;;;;;;;5.55;2.00;;;3.70;90.70;;;;;;5012287;28;20608;-75
2021/12/20 07:34:01;;;;;;;4.50;2.13;;;3.70;90.70;;;;;;4995697;28;20388;-78
2021/12/20 07:36:32;;;;;;;7.88;2.67;;;3.70;90.50;;;;;;4994164;28;20096;-77
2021/12/20 07:39:00;;;;;;;9.18;2.92;;;3.70;90.60;;;;;;4987862;28;20023;-79
2021/12/20 07:41:25;;;;;;;13.98;2.35;;;3.70;90.60;;;;;;4991492;28;20077;-80
2021/12/20 07:43:52;;;;;;;9.60;3.75;;;3.70;90.50;;;;;;4987459;28;20027;-79
2021/12/20 07:46:19;;;;;;;9.15;2.63;;;3.70;90.50;;;;;;4977114;28;20150;-85
2021/12/20 07:48:45;;;;;;;12.73;3.63;;;3.80;90.50;;;;;;4982875;28;20025;-78
2021/12/20 07:51:11;;;;;;;12.38;3.95;;;3.80;90.40;;;;;;4992283;28;20022;-79
2021/12/20 07:53:42;;;;;;;11.07;2.97;;;3.80;90.20;;;;;;4988457;28;20032;-81
2021/12/20 07:56:08;;;;;;;10.65;3.00;;;3.90;90.40;;;;;;4977379;28;20177;-80
2021/12/20 07:58:33;;;;;;;7.07;3.10;;;3.90;90.20;;;;;;4989626;28;20113;-77
2021/12/20 08:01:04;;;;;;;10.25;3.10;;;3.90;90.10;;;;;;4994437;28;20507;-81
2021/12/20 08:03:30;;;;;;;12.68;2.72;;;4.00;90.60;;;;;;4995626;28;20160;-80
2021/12/20 08:05:55;;;;;;;13.90;3.10;;;4.00;90.00;;;;;;4994589;28;20480;-78
2021/12/20 08:08:21;;;;;;;8.45;2.53;;;4.00;89.40;;;;;;4995457;28;20058;-83
2021/12/20 08:10:47;;;;;;;19.55;3.42;;;4.10;89.60;;;;;;4994672;28;20066;-80
2021/12/20 08:13:15;;;;;;;5.43;2.65;;;4.10;89.20;;;;;;4993514;28;20018;-80
2021/12/20 08:15:41;;;;;;;11.80;2.58;;;4.10;89.00;;;;;;4993640;28;20030;-80
2021/12/20 08:18:06;;;;;;;11.48;2.83;;;4.10;89.20;;;;;;4993627;28;20122;-80
2021/12/20 08:20:33;;;;;;;7.90;4.13;;;4.10;89.50;;;;;;4993538;28;20081;-82
2021/12/20 08:23:01;;;;;;;8.88;3.08;;;4.20;89.10;;;;;;4994465;28;20022;-79
2021/12/20 08:25:27;;;;;;;12.40;3.22;;;4.20;88.70;;;;;;4995231;28;20122;-82
2021/12/20 08:27:52;;;;;;;5.90;3.20;;;4.20;88.90;;;;;;5003461;28;20053;-80
2021/12/20 08:30:21;;;;;;;6.13;3.05;;;4.20;89.10;;;;;;5015216;28;20026;-80
2021/12/20 08:32:49;;;;;;;6.35;3.40;;;4.20;88.70;;;;;;5014502;28;20044;-80
2021/12/20 08:35:23;;;;;;;13.18;3.00;;;4.30;88.60;;;;;;5015083;28;20037;-75
2021/12/20 08:37:50;;;;;;;3.92;2.58;;;4.30;88.20;;;;;;5015272;28;20028;-74
2021/12/20 08:40:17;;;;;;;9.18;3.22;;;4.30;88.20;;;;;;5014804;28;20080;-77
2021/12/20 08:42:44;;;;;;;11.23;3.65;;;4.30;88.10;;;;;;5013531;28;20018;-78
2021/12/20 08:45:11;;;;;;;13.52;3.90;;;4.30;87.70;;;;;;5012184;28;20018;-77
2021/12/20 08:47:37;;;;;;;7.90;2.78;;;4.40;88.20;;;;;;5012504;28;20041;-79
2021/12/20 08:50:06;;;;;;;6.80;3.00;;;4.40;88.00;;;;;;5012261;28;20030;-76
2021/12/20 08:52:32;;;;;;;6.93;3.67;;;4.40;87.70;;;;;;5012671;28;20494;-80
2021/12/20 08:54:58;;;;;;;9.20;3.40;;;4.50;87.50;;;;;;5014670;28;20084;-79
2021/12/20 08:57:23;;;;;;;8.38;3.53;;;4.40;87.00;;;;;;5005560;28;20021;-77
2021/12/20 08:59:49;;;;;;;7.47;3.47;;;4.40;87.20;;;;;;4992109;28;20114;-79
2021/12/20 09:02:15;;;;;;;9.75;4.15;;;4.40;87.50;;;;;;4994365;28;20106;-78
2021/12/20 09:04:41;;;;;;;8.73;3.42;;;4.40;87.60;;;;;;4994145;28;20026;-78
2021/12/20 09:07:14;;;;;;;7.03;3.00;;;4.40;87.90;;;;;;4993951;28;20122;-81
2021/12/20 09:09:43;;;;;;;6.97;4.10;;;4.40;87.90;;;;;;4994116;28;20104;-83
2021/12/20 09:12:09;;;;;;;7.65;3.13;;;4.40;87.70;;;;;;4992999;28;20164;-84
2021/12/20 09:14:37;;;;;;;10.05;4.10;;;4.40;87.70;;;;;;4992941;28;20034;-80
2021/12/20 09:17:04;;;;;;;6.13;3.38;;;4.40;87.70;;;;;;4992533;28;20384;-82
2021/12/20 09:19:30;;;;;;;10.02;4.70;;;4.40;87.70;;;;;;4992914;28;20034;-82
2021/12/20 09:21:56;;;;;;;7.95;3.20;;;4.40;87.90;;;;;;4994694;28;20018;-84
2021/12/20 09:24:24;;;;;;;9.98;4.22;;;4.30;87.70;;;;;;4993730;28;20022;-85
2021/12/20 09:26:51;;;;;;;12.05;3.85;;;4.40;87.90;;;;;;4994329;28;20029;-74
2021/12/20 09:29:17;;;;;;;11.20;3.78;;;4.40;87.80;;;;;;4992624;28;20487;-77
2021/12/20 09:31:44;;;;;;;10.68;3.53;;;4.40;87.80;;;;;;4976049;28;20027;-78
2021/12/20 09:34:11;;;;;;;9.70;3.42;;;4.40;87.60;;;;;;4991786;28;20040;-77
2021/12/20 09:36:39;;;;;;;7.28;3.75;;;4.40;87.60;;;;;;4994799;28;20054;-82
2021/12/20 09:39:10;;;;;;;15.50;3.60;;;4.40;87.30;;;;;;4997079;28;20042;-78
2021/12/20 09:44:10;;;;;;;9.23;3.63;;;4.50;87.30;;;;;;4995823;28;20040;-78
2021/12/20 09:46:37;;;;;;;16.80;4.50;;;4.50;87.70;;;;;;4994974;28;20023;-83
2021/12/20 09:49:04;;;;;;;9.63;3.70;;;4.60;87.60;;;;;;4997074;28;20054;-79
2021/12/20 09:51:30;;;;;;;13.18;3.53;;;4.60;86.90;;;;;;4995740;28;20026;-77
2021/12/20 09:53:56;;;;;;;10.60;4.28;;;4.60;86.80;;;;;;4997428;28;20030;-80
2021/12/20 09:56:28;;;;;;;7.07;3.67;;;4.60;86.40;;;;;;4997024;28;20037;-77
2021/12/20 09:58:55;;;;;;;7.88;3.65;;;4.60;86.60;;;;;;4995296;28;20069;-78
2021/12/20 10:01:23;;;;;;;13.25;3.75;;;4.70;86.60;;;;;;4997020;28;20534;-80
2021/12/20 10:03:49;;;;;;;6.30;3.53;;;4.70;87.20;;;;;;4995349;28;20026;-77
2021/12/20 10:06:16;;;;;;;15.02;4.05;;;4.70;86.70;;;;;;4999052;28;20522;-80
2021/12/20 10:08:52;;;;;;;7.10;3.83;;;4.70;86.60;;;;;;5007961;28;20475;-77
2021/12/20 10:11:26;;;;;;;15.60;7.00;;;4.80;86.20;;;;;;5015123;28;20022;-81
2021/12/20 10:14:21;;;;;;;16.92;4.10;;;4.90;85.50;;;;;;5014584;28;20022;-81
2021/12/20 10:16:47;;;;;;;11.10;3.50;;;4.80;85.50;;;;;;5016259;28;20026;-76
2021/12/20 10:19:35;;;;;;;12.65;3.85;;;4.80;85.70;;;;;;5015459;28;20049;-77
2021/12/20 10:22:29;;;;;;;10.27;4.07;;;4.80;85.50;;;;;;5015342;28;20069;-76
2021/12/20 10:24:57;;;;;;;8.32;3.72;;;4.80;85.90;;;;;;5015961;28;20029;-77
2021/12/20 10:27:35;;;;;;;4.63;3.13;;;4.80;85.90;;;;;;5014557;28;20014;-77
2021/12/20 10:30:28;;;;;;;9.80;3.47;;;4.80;85.90;;;;;;5012161;28;20033;-80
2021/12/20 10:32:55;;;;;;;13.52;4.63;;;4.80;85.80;;;;;;5013181;28;20364;-77
2021/12/20 10:35:27;;;;;;;6.72;4.13;;;4.80;85.70;;;;;;4995885;28;20081;-76
2021/12/20 10:38:18;;;;;;;8.25;3.88;;;4.80;85.50;;;;;;5014952;28;20038;-78
2021/12/20 10:41:00;;;;;;;12.10;3.60;;;4.90;85.70;;;;;;5014133;28;20030;-81
2021/12/20 10:43:52;;;;;;;9.50;4.05;;;4.90;85.80;;;;;;5014336;28;20019;-80
2021/12/20 10:46:25;;;;;;;6.70;3.05;;;5.00;85.60;;;;;;5005323;28;20076;-78
2021/12/20 10:48:58;;;;;;;9.85;4.07;;;5.00;85.20;;;;;;5014586;28;20391;-84
2021/12/20 10:51:28;;;;;;;6.88;3.45;;;5.10;84.70;;;;;;5015060;28;20029;-81
2021/12/20 10:53:59;;;;;;;15.55;3.78;;;5.10;84.40;;;;;;4997979;28;20034;-79
2021/12/20 10:56:26;;;;;;;15.90;4.10;;;5.10;84.50;;;;;;5014122;28;20022;-82
2021/12/20 10:58:53;;;;;;;10.13;3.38;;;5.20;84.40;;;;;;5014121;28;20069;-73
2021/12/20 11:03:58;;;;;;;9.27;3.63;;;5.20;84.10;;;;;;5015049;28;20026;-78
2021/12/20 11:06:26;;;;;;;12.90;4.53;;;5.30;84.00;;;;;;5024460;28;20112;-79
2021/12/20 11:09:05;;;;;;;6.50;3.60;;;5.30;83.80;;;;;;5016952;28;20033;-78
2021/12/20 11:11:34;;;;;;;9.52;3.45;;;5.40;83.60;;;;;;5015587;28;20468;-79
2021/12/20 11:14:05;;;;;;;8.60;3.70;;;5.40;83.20;;;;;;4997484;28;20490;-78
2021/12/20 11:16:45;;;;;;;16.02;3.97;;;5.40;82.90;;;;;;5015271;28;20336;-80
2021/12/20 11:19:15;;;;;;;7.40;3.70;;;5.40;83.00;;;;;;5014633;28;20026;-82
2021/12/20 11:22:06;;;;;;;10.20;3.17;;;5.40;82.90;;;;;;5012505;28;20475;-78
2021/12/20 11:24:37;;;;;;;8.80;3.28;;;5.40;82.40;;;;;;5000262;28;20037;-78
2021/12/20 11:27:08;;;;;;;7.65;3.13;;;5.40;82.80;;;;;;5008162;28;20026;-78
2021/12/20 11:29:36;;;;;;;8.95;2.92;;;5.40;82.50;;;;;;5028513;28;20033;-81
2021/12/20 11:32:11;;;;;;;10.48;3.58;;;5.40;82.50;;;;;;5035094;28;20021;-78
2021/12/20 11:34:42;;;;;;;11.38;3.45;;;5.40;82.70;;;;;;5024919;28;20029;-75
2021/12/20 11:37:12;;;;;;;10.80;3.15;;;5.50;82.40;;;;;;5003933;28;20497;-75
2021/12/20 11:39:38;;;;;;;8.45;3.03;;;5.50;82.40;;;;;;5016151;28;20022;-74
2021/12/20 11:42:13;;;;;;;8.88;3.10;;;5.50;82.40;;;;;;5034009;28;20041;-76
2021/12/20 11:44:41;;;;;;;16.17;3.97;;;5.60;82.60;;;;;;5016189;28;20454;-77
2021/12/20 11:47:31;;;;;;;10.63;5.15;;;5.60;82.30;;;;;;5016354;28;20021;-75
2021/12/20 11:50:10;;;;;;;15.48;3.65;;;5.60;82.10;;;;;;5015812;28;20029;-75
2021/12/20 11:52:38;;;;;;;8.80;4.15;;;5.60;82.20;;;;;;5034022;28;20018;-75
2021/12/20 11:55:28;;;;;;;12.27;4.55;;;5.60;82.00;;;;;;5034244;28;20025;-77
2021/12/20 11:57:59;;;;;;;8.52;4.18;;;5.60;81.70;;;;;;5034233;28;20026;-77
2021/12/20 12:00:26;;;;;;;10.57;3.92;;;5.60;82.10;;;;;;5033173;28;20040;-78
2021/12/20 12:02:54;;;;;;;9.82;3.78;;;5.60;82.10;;;;;;5034022;28;20100;-76
2021/12/20 12:05:40;;;;;;;7.13;3.28;;;5.60;82.40;;;;;;5033971;28;20022;-76
2021/12/20 12:08:35;;;;;;;7.82;3.95;;;5.60;82.10;;;;;;5034642;28;20029;-76
2021/12/20 12:11:07;;;;;;;7.30;3.20;;;5.50;82.10;;;;;;4994881;28;20592;-77
2021/12/20 12:13:59;;;;;;;;;;;5.50;82.30;;;;;;5016413;28;20175;-78
2021/12/20 12:16:46;;;;;;;14.27;4.10;;;5.40;82.30;;;;;;5032251;28;19912;-77
2021/12/20 12:19:12;;;;;;;16.20;3.90;;;5.40;82.70;;;;;;5015705;28;20056;-78
2021/12/20 12:21:41;;;;;;;10.75;3.45;;;5.40;82.90;;;;;;5015756;28;20022;-80
2021/12/20 12:24:14;;;;;;;10.75;3.17;;;5.40;82.60;;;;;;5015701;28;20053;-81
2021/12/20 12:26:43;;;;;;;6.45;3.03;;;5.40;82.60;;;;;;5015900;28;20025;-79
2021/12/20 12:29:21;;;;;;;6.93;3.35;;;5.40;82.60;;;;;;5015798;28;20036;-78
2021/12/20 12:31:58;;;;;;;12.77;3.28;;;5.50;82.80;;;;;;5015481;28;20021;-77
2021/12/20 12:34:41;;;;;;;8.73;4.20;;;5.50;82.80;;;;;;5015630;28;20053;-77
2021/12/20 12:37:19;;;;;;;8.38;4.10;;;5.50;82.60;;;;;;5015624;28;20467;-76
2021/12/20 12:39:45;;;;;;;6.95;3.05;;;5.50;82.70;;;;;;5015379;28;20060;-76
2021/12/20 12:42:11;;;;;;;11.10;3.17;;;5.40;82.40;;;;;;5015323;28;20041;-76
2021/12/20 12:44:37;;;;;;;11.45;3.88;;;5.40;82.50;;;;;;5033890;28;20021;-79
2021/12/20 12:47:12;;;;;;;11.05;3.70;;;5.40;82.50;;;;;;5033224;28;20382;-73
2021/12/20 12:49:44;;;;;;;7.78;3.83;;;5.40;82.60;;;;;;5033663;28;20060;-79
2021/12/20 12:52:15;;;;;;;16.85;4.70;;;5.40;82.90;;;;;;5033507;28;20032;-77
2021/12/20 12:54:54;;;;;;;12.48;4.32;;;5.40;82.90;;;;;;5032950;28;20025;-76
2021/12/20 12:57:20;;;;;;;7.10;3.35;;;5.50;82.90;;;;;;5033454;28;20057;-78
2021/12/20 12:59:56;;;;;;;12.13;4.00;;;5.50;83.10;;;;;;5015489;28;20062;-78
2021/12/20 13:02:42;;;;;;;8.88;3.05;;;5.50;82.30;;;;;;5015406;28;20030;-77
2021/12/20 13:05:14;;;;;;;6.60;3.40;;;5.50;82.30;;;;;;5032598;28;20045;-76
2021/12/20 13:07:47;;;;;;;11.70;3.00;;;5.50;82.50;;;;;;5032779;28;20096;-80
2021/12/20 13:10:32;;;;;;;8.45;4.40;;;5.60;82.30;;;;;;5033157;28;20033;-78
2021/12/20 13:13:07;;;;;;;6.32;2.97;;;5.60;81.40;;;;;;5037154;28;20045;-78
2021/12/20 13:15:41;;;;;;;7.22;3.72;;;5.50;80.90;;;;;;5019866;28;20510;-80
2021/12/20 13:18:13;;;;;;;26.60;5.43;;;5.40;81.30;;;;;;5036862;28;20029;-78
2021/12/20 13:21:05;;;;;;;6.47;3.75;;;5.50;81.80;;;;;;5035686;28;20037;-75
2021/12/20 13:23:29;;;;;;;7.90;3.42;;;5.50;81.50;;;;;;5036241;28;20091;-73
2021/12/20 13:26:10;;;;;;;7.40;2.97;;;5.50;81.70;;;;;;5036682;28;20029;-77